Meyersville, Texas
Current Conditions -  °F | °C
As of 9:14 AM on Saturday 22 Nov 2014 (Local Time) from KVCT Reporting Station
Overcast Overcast  
Wind Chill: 21°   Ceiling: 2500
Heat Index: 21°   Visibility: 9mi
Dew Point: 18°   Wind: 14mph
Humidity: 84%   Direction: 110°ESE
Pressure: 30"   Gusts: NA
Location:  28.93°N, 97.31°W
Report Text: KVCT 221514Z 11012KT 9SM BKN025 OVC032 21/18 A3000 RMK AO2 T02110183
Loading
Personal Weather Stations






























Interactive Weather Map New forecast layout! Learn more

10-Day Weather Forecast

Advertisements
Track Severe Weather on mobile